sensor_id;sensor_type;location;lat;lon;timestamp;P1;durP1;ratioP1;P2;durP2;ratioP2
4758;SDS011;2393;50.560;12.636;2022-08-19T00:01:54;37.23;;;22.60;;
4758;SDS011;2393;50.560;12.636;2022-08-19T00:04:26;48.53;;;24.90;;
4758;SDS011;2393;50.560;12.636;2022-08-19T00:06:55;39.20;;;24.53;;
4758;SDS011;2393;50.560;12.636;2022-08-19T00:09:24;46.57;;;25.40;;
4758;SDS011;2393;50.560;12.636;2022-08-19T00:11:53;39.63;;;24.30;;
4758;SDS011;2393;50.560;12.636;2022-08-19T00:14:24;37.63;;;23.50;;
4758;SDS011;2393;50.560;12.636;2022-08-19T00:16:53;39.00;;;24.80;;
4758;SDS011;2393;50.560;12.636;2022-08-19T00:19:22;38.30;;;23.87;;
4758;SDS011;2393;50.560;12.636;2022-08-19T00:21:52;38.53;;;24.30;;
4758;SDS011;2393;50.560;12.636;2022-08-19T00:24:20;45.70;;;25.47;;
4758;SDS011;2393;50.560;12.636;2022-08-19T00:26:48;47.17;;;27.60;;
4758;SDS011;2393;50.560;12.636;2022-08-19T00:29:19;44.77;;;24.10;;
4758;SDS011;2393;50.560;12.636;2022-08-19T00:31:48;47.43;;;25.83;;
4758;SDS011;2393;50.560;12.636;2022-08-19T00:34:19;50.67;;;29.57;;
4758;SDS011;2393;50.560;12.636;2022-08-19T00:36:47;46.90;;;24.33;;
4758;SDS011;2393;50.560;12.636;2022-08-19T00:39:17;38.63;;;24.50;;
4758;SDS011;2393;50.560;12.636;2022-08-19T00:41:46;42.20;;;24.10;;
4758;SDS011;2393;50.560;12.636;2022-08-19T00:44:17;41.07;;;23.60;;
4758;SDS011;2393;50.560;12.636;2022-08-19T00:46:52;48.80;;;26.13;;
4758;SDS011;2393;50.560;12.636;2022-08-19T00:49:25;44.63;;;24.37;;
4758;SDS011;2393;50.560;12.636;2022-08-19T00:51:57;44.53;;;25.60;;
4758;SDS011;2393;50.560;12.636;2022-08-19T00:54:31;45.40;;;26.83;;
4758;SDS011;2393;50.560;12.636;2022-08-19T00:56:59;42.77;;;23.47;;
4758;SDS011;2393;50.560;12.636;2022-08-19T00:59:29;30.37;;;18.57;;
4758;SDS011;2393;50.560;12.636;2022-08-19T01:02:17;41.17;;;24.67;;
4758;SDS011;2393;50.560;12.636;2022-08-19T01:04:46;48.33;;;25.50;;
4758;SDS011;2393;50.560;12.636;2022-08-19T01:07:14;51.63;;;25.60;;
4758;SDS011;2393;50.560;12.636;2022-08-19T01:09:46;50.13;;;25.47;;
4758;SDS011;2393;50.560;12.636;2022-08-19T01:12:14;47.27;;;24.77;;
4758;SDS011;2393;50.560;12.636;2022-08-19T01:14:44;46.00;;;24.70;;
4758;SDS011;2393;50.560;12.636;2022-08-19T01:17:12;51.03;;;26.43;;
4758;SDS011;2393;50.560;12.636;2022-08-19T01:19:42;45.20;;;24.33;;
4758;SDS011;2393;50.560;12.636;2022-08-19T01:22:14;56.73;;;27.93;;
4758;SDS011;2393;50.560;12.636;2022-08-19T01:24:58;55.43;;;27.43;;
4758;SDS011;2393;50.560;12.636;2022-08-19T01:27:26;49.43;;;26.57;;
4758;SDS011;2393;50.560;12.636;2022-08-19T01:30:07;51.67;;;26.93;;
4758;SDS011;2393;50.560;12.636;2022-08-19T01:32:36;52.93;;;27.03;;
4758;SDS011;2393;50.560;12.636;2022-08-19T01:35:04;48.17;;;23.50;;
4758;SDS011;2393;50.560;12.636;2022-08-19T01:37:41;51.10;;;24.27;;
4758;SDS011;2393;50.560;12.636;2022-08-19T01:40:11;45.43;;;24.33;;
4758;SDS011;2393;50.560;12.636;2022-08-19T01:42:40;40.43;;;22.33;;
4758;SDS011;2393;50.560;12.636;2022-08-19T01:45:08;46.00;;;24.73;;
4758;SDS011;2393;50.560;12.636;2022-08-19T01:47:37;41.83;;;23.87;;
4758;SDS011;2393;50.560;12.636;2022-08-19T01:50:06;55.87;;;28.70;;
4758;SDS011;2393;50.560;12.636;2022-08-19T01:52:36;43.10;;;23.03;;
4758;SDS011;2393;50.560;12.636;2022-08-19T01:55:05;46.97;;;24.20;;
4758;SDS011;2393;50.560;12.636;2022-08-19T01:57:35;50.50;;;25.47;;
4758;SDS011;2393;50.560;12.636;2022-08-19T02:00:06;41.90;;;21.13;;
4758;SDS011;2393;50.560;12.636;2022-08-19T02:02:39;35.87;;;20.43;;
4758;SDS011;2393;50.560;12.636;2022-08-19T02:05:10;45.90;;;22.50;;
4758;SDS011;2393;50.560;12.636;2022-08-19T02:07:38;36.17;;;21.67;;
4758;SDS011;2393;50.560;12.636;2022-08-19T02:10:08;44.60;;;24.20;;
4758;SDS011;2393;50.560;12.636;2022-08-19T02:12:43;40.87;;;22.30;;
4758;SDS011;2393;50.560;12.636;2022-08-19T02:15:13;39.03;;;21.23;;
4758;SDS011;2393;50.560;12.636;2022-08-19T02:17:41;48.37;;;24.00;;
4758;SDS011;2393;50.560;12.636;2022-08-19T02:20:09;50.47;;;22.97;;
4758;SDS011;2393;50.560;12.636;2022-08-19T02:22:39;45.17;;;22.23;;
4758;SDS011;2393;50.560;12.636;2022-08-19T02:25:08;47.83;;;22.73;;
4758;SDS011;2393;50.560;12.636;2022-08-19T02:27:37;45.83;;;24.27;;
4758;SDS011;2393;50.560;12.636;2022-08-19T02:30:07;50.93;;;26.70;;
4758;SDS011;2393;50.560;12.636;2022-08-19T02:32:39;49.70;;;24.47;;
4758;SDS011;2393;50.560;12.636;2022-08-19T02:35:10;43.27;;;21.83;;
4758;SDS011;2393;50.560;12.636;2022-08-19T02:37:39;33.70;;;18.73;;
4758;SDS011;2393;50.560;12.636;2022-08-19T02:40:28;31.27;;;17.40;;
4758;SDS011;2393;50.560;12.636;2022-08-19T02:43:00;33.53;;;19.30;;
4758;SDS011;2393;50.560;12.636;2022-08-19T02:45:32;35.50;;;20.80;;
4758;SDS011;2393;50.560;12.636;2022-08-19T02:48:05;35.43;;;20.47;;
4758;SDS011;2393;50.560;12.636;2022-08-19T02:50:47;30.77;;;19.00;;
4758;SDS011;2393;50.560;12.636;2022-08-19T02:53:19;41.73;;;19.23;;
4758;SDS011;2393;50.560;12.636;2022-08-19T02:55:48;39.60;;;19.80;;
4758;SDS011;2393;50.560;12.636;2022-08-19T02:58:17;29.67;;;17.30;;
4758;SDS011;2393;50.560;12.636;2022-08-19T03:00:49;36.37;;;19.13;;
4758;SDS011;2393;50.560;12.636;2022-08-19T03:03:19;44.67;;;17.83;;
4758;SDS011;2393;50.560;12.636;2022-08-19T03:05:47;33.77;;;19.60;;
4758;SDS011;2393;50.560;12.636;2022-08-19T03:08:22;29.20;;;18.20;;
4758;SDS011;2393;50.560;12.636;2022-08-19T03:10:51;29.67;;;17.70;;
4758;SDS011;2393;50.560;12.636;2022-08-19T03:13:20;28.37;;;17.23;;
4758;SDS011;2393;50.560;12.636;2022-08-19T03:15:50;30.10;;;17.50;;
4758;SDS011;2393;50.560;12.636;2022-08-19T03:18:18;26.73;;;16.67;;
4758;SDS011;2393;50.560;12.636;2022-08-19T03:20:49;26.40;;;15.50;;
4758;SDS011;2393;50.560;12.636;2022-08-19T03:23:21;34.13;;;20.37;;
4758;SDS011;2393;50.560;12.636;2022-08-19T03:25:50;34.17;;;18.63;;
4758;SDS011;2393;50.560;12.636;2022-08-19T03:28:40;27.73;;;17.07;;
4758;SDS011;2393;50.560;12.636;2022-08-19T03:31:19;25.03;;;15.80;;
4758;SDS011;2393;50.560;12.636;2022-08-19T03:34:09;30.30;;;15.93;;
4758;SDS011;2393;50.560;12.636;2022-08-19T03:36:38;28.13;;;15.20;;
4758;SDS011;2393;50.560;12.636;2022-08-19T03:39:07;26.10;;;16.20;;
4758;SDS011;2393;50.560;12.636;2022-08-19T03:41:37;24.50;;;16.10;;
4758;SDS011;2393;50.560;12.636;2022-08-19T03:44:10;34.67;;;19.30;;
4758;SDS011;2393;50.560;12.636;2022-08-19T03:46:46;29.27;;;15.17;;
4758;SDS011;2393;50.560;12.636;2022-08-19T03:49:15;24.40;;;14.93;;
4758;SDS011;2393;50.560;12.636;2022-08-19T03:51:44;28.67;;;14.97;;
4758;SDS011;2393;50.560;12.636;2022-08-19T03:54:15;36.67;;;17.63;;
4758;SDS011;2393;50.560;12.636;2022-08-19T03:56:46;24.13;;;15.50;;
4758;SDS011;2393;50.560;12.636;2022-08-19T03:59:16;25.87;;;15.17;;
4758;SDS011;2393;50.560;12.636;2022-08-19T04:01:48;25.87;;;16.30;;
4758;SDS011;2393;50.560;12.636;2022-08-19T04:04:16;26.10;;;14.10;;
4758;SDS011;2393;50.560;12.636;2022-08-19T04:06:45;32.40;;;19.00;;
4758;SDS011;2393;50.560;12.636;2022-08-19T04:09:14;27.83;;;17.90;;
4758;SDS011;2393;50.560;12.636;2022-08-19T04:11:43;33.00;;;18.33;;
4758;SDS011;2393;50.560;12.636;2022-08-19T04:14:14;29.27;;;15.80;;
4758;SDS011;2393;50.560;12.636;2022-08-19T04:16:44;33.00;;;19.30;;
4758;SDS011;2393;50.560;12.636;2022-08-19T04:19:15;31.00;;;18.70;;
4758;SDS011;2393;50.560;12.636;2022-08-19T04:21:44;31.83;;;17.30;;
4758;SDS011;2393;50.560;12.636;2022-08-19T04:24:14;38.93;;;18.90;;
4758;SDS011;2393;50.560;12.636;2022-08-19T04:26:43;30.13;;;16.50;;
4758;SDS011;2393;50.560;12.636;2022-08-19T04:29:12;33.97;;;18.03;;
4758;SDS011;2393;50.560;12.636;2022-08-19T04:31:42;44.77;;;21.27;;
4758;SDS011;2393;50.560;12.636;2022-08-19T04:34:13;47.57;;;21.30;;
4758;SDS011;2393;50.560;12.636;2022-08-19T04:36:43;43.60;;;19.63;;
4758;SDS011;2393;50.560;12.636;2022-08-19T04:39:12;38.87;;;20.43;;
4758;SDS011;2393;50.560;12.636;2022-08-19T04:41:43;39.37;;;17.73;;
4758;SDS011;2393;50.560;12.636;2022-08-19T04:44:32;37.10;;;19.60;;
4758;SDS011;2393;50.560;12.636;2022-08-19T04:47:11;40.03;;;17.43;;
4758;SDS011;2393;50.560;12.636;2022-08-19T04:49:41;30.20;;;17.00;;
4758;SDS011;2393;50.560;12.636;2022-08-19T04:52:09;26.73;;;14.60;;
4758;SDS011;2393;50.560;12.636;2022-08-19T04:54:37;27.97;;;15.13;;
4758;SDS011;2393;50.560;12.636;2022-08-19T04:57:06;21.53;;;11.87;;
4758;SDS011;2393;50.560;12.636;2022-08-19T04:59:36;22.37;;;13.60;;
4758;SDS011;2393;50.560;12.636;2022-08-19T05:02:06;20.40;;;11.97;;
4758;SDS011;2393;50.560;12.636;2022-08-19T05:04:35;26.20;;;13.60;;
4758;SDS011;2393;50.560;12.636;2022-08-19T05:07:07;28.10;;;13.30;;
4758;SDS011;2393;50.560;12.636;2022-08-19T05:09:36;21.30;;;12.60;;
4758;SDS011;2393;50.560;12.636;2022-08-19T05:12:24;29.13;;;14.20;;
4758;SDS011;2393;50.560;12.636;2022-08-19T05:14:55;22.57;;;12.50;;
4758;SDS011;2393;50.560;12.636;2022-08-19T05:17:24;20.50;;;11.20;;
4758;SDS011;2393;50.560;12.636;2022-08-19T05:19:55;16.57;;;10.70;;
4758;SDS011;2393;50.560;12.636;2022-08-19T05:22:43;20.10;;;11.90;;
4758;SDS011;2393;50.560;12.636;2022-08-19T05:25:14;15.40;;;10.30;;
4758;SDS011;2393;50.560;12.636;2022-08-19T05:27:45;17.00;;;10.50;;
4758;SDS011;2393;50.560;12.636;2022-08-19T05:30:13;16.73;;;10.33;;
4758;SDS011;2393;50.560;12.636;2022-08-19T05:32:41;15.63;;;10.13;;
4758;SDS011;2393;50.560;12.636;2022-08-19T05:35:10;12.40;;;8.83;;
4758;SDS011;2393;50.560;12.636;2022-08-19T05:37:38;13.93;;;9.27;;
4758;SDS011;2393;50.560;12.636;2022-08-19T05:40:09;17.20;;;8.40;;
4758;SDS011;2393;50.560;12.636;2022-08-19T05:42:37;11.67;;;8.23;;
4758;SDS011;2393;50.560;12.636;2022-08-19T05:45:05;12.87;;;8.27;;
4758;SDS011;2393;50.560;12.636;2022-08-19T05:47:34;10.67;;;7.73;;
4758;SDS011;2393;50.560;12.636;2022-08-19T05:50:07;11.13;;;8.30;;
4758;SDS011;2393;50.560;12.636;2022-08-19T05:52:36;10.60;;;7.73;;
4758;SDS011;2393;50.560;12.636;2022-08-19T05:55:20;9.70;;;6.60;;
4758;SDS011;2393;50.560;12.636;2022-08-19T05:57:49;7.03;;;6.33;;
4758;SDS011;2393;50.560;12.636;2022-08-19T06:00:17;9.20;;;6.70;;
4758;SDS011;2393;50.560;12.636;2022-08-19T06:02:50;7.07;;;5.63;;
4758;SDS011;2393;50.560;12.636;2022-08-19T06:05:18;5.63;;;5.13;;
4758;SDS011;2393;50.560;12.636;2022-08-19T06:07:46;5.83;;;4.90;;
4758;SDS011;2393;50.560;12.636;2022-08-19T06:10:15;5.40;;;4.83;;
4758;SDS011;2393;50.560;12.636;2022-08-19T06:12:59;5.20;;;4.80;;
4758;SDS011;2393;50.560;12.636;2022-08-19T06:15:28;6.53;;;5.73;;
4758;SDS011;2393;50.560;12.636;2022-08-19T06:17:58;6.77;;;5.20;;
4758;SDS011;2393;50.560;12.636;2022-08-19T06:20:27;4.50;;;4.10;;
4758;SDS011;2393;50.560;12.636;2022-08-19T06:23:15;4.53;;;4.23;;
4758;SDS011;2393;50.560;12.636;2022-08-19T06:25:44;4.40;;;4.00;;
4758;SDS011;2393;50.560;12.636;2022-08-19T06:28:13;4.63;;;4.10;;
4758;SDS011;2393;50.560;12.636;2022-08-19T06:30:42;5.77;;;4.83;;
4758;SDS011;2393;50.560;12.636;2022-08-19T06:33:10;3.73;;;3.43;;
4758;SDS011;2393;50.560;12.636;2022-08-19T06:35:39;4.40;;;4.00;;
4758;SDS011;2393;50.560;12.636;2022-08-19T06:38:07;5.10;;;4.40;;
4758;SDS011;2393;50.560;12.636;2022-08-19T06:40:35;6.23;;;4.17;;
4758;SDS011;2393;50.560;12.636;2022-08-19T06:43:04;7.07;;;5.40;;
4758;SDS011;2393;50.560;12.636;2022-08-19T06:45:37;4.83;;;4.43;;
4758;SDS011;2393;50.560;12.636;2022-08-19T06:48:13;5.73;;;4.93;;
4758;SDS011;2393;50.560;12.636;2022-08-19T06:50:43;8.03;;;6.30;;
4758;SDS011;2393;50.560;12.636;2022-08-19T06:53:11;10.13;;;7.07;;
4758;SDS011;2393;50.560;12.636;2022-08-19T06:55:40;8.57;;;7.10;;
4758;SDS011;2393;50.560;12.636;2022-08-19T06:58:08;10.90;;;7.23;;
4758;SDS011;2393;50.560;12.636;2022-08-19T07:00:38;9.10;;;7.27;;
4758;SDS011;2393;50.560;12.636;2022-08-19T07:03:07;7.97;;;6.40;;
4758;SDS011;2393;50.560;12.636;2022-08-19T07:05:39;16.33;;;8.80;;
4758;SDS011;2393;50.560;12.636;2022-08-19T07:08:11;12.50;;;9.03;;
4758;SDS011;2393;50.560;12.636;2022-08-19T07:10:42;14.70;;;8.63;;
4758;SDS011;2393;50.560;12.636;2022-08-19T07:13:10;13.43;;;9.73;;
4758;SDS011;2393;50.560;12.636;2022-08-19T07:15:40;20.50;;;12.93;;
4758;SDS011;2393;50.560;12.636;2022-08-19T07:18:09;18.80;;;11.40;;
4758;SDS011;2393;50.560;12.636;2022-08-19T07:20:37;21.10;;;12.67;;
4758;SDS011;2393;50.560;12.636;2022-08-19T07:23:07;14.07;;;9.70;;
4758;SDS011;2393;50.560;12.636;2022-08-19T07:25:46;15.43;;;11.23;;
4758;SDS011;2393;50.560;12.636;2022-08-19T07:28:18;17.77;;;10.43;;
4758;SDS011;2393;50.560;12.636;2022-08-19T07:30:51;29.00;;;13.10;;
4758;SDS011;2393;50.560;12.636;2022-08-19T07:33:19;18.13;;;11.83;;
4758;SDS011;2393;50.560;12.636;2022-08-19T07:35:47;18.80;;;11.60;;
4758;SDS011;2393;50.560;12.636;2022-08-19T07:38:16;20.00;;;11.57;;
4758;SDS011;2393;50.560;12.636;2022-08-19T07:40:44;23.57;;;13.00;;
4758;SDS011;2393;50.560;12.636;2022-08-19T07:43:13;17.33;;;11.53;;
4758;SDS011;2393;50.560;12.636;2022-08-19T07:45:43;13.77;;;9.47;;
4758;SDS011;2393;50.560;12.636;2022-08-19T07:48:14;14.63;;;10.00;;
4758;SDS011;2393;50.560;12.636;2022-08-19T07:50:42;15.70;;;10.40;;
4758;SDS011;2393;50.560;12.636;2022-08-19T07:53:10;16.57;;;11.47;;
4758;SDS011;2393;50.560;12.636;2022-08-19T07:55:39;16.07;;;11.13;;
4758;SDS011;2393;50.560;12.636;2022-08-19T07:58:10;17.13;;;10.93;;
4758;SDS011;2393;50.560;12.636;2022-08-19T08:00:40;22.90;;;12.30;;
4758;SDS011;2393;50.560;12.636;2022-08-19T08:03:09;21.80;;;12.33;;
4758;SDS011;2393;50.560;12.636;2022-08-19T08:05:44;19.03;;;12.27;;
4758;SDS011;2393;50.560;12.636;2022-08-19T08:08:30;20.23;;;12.60;;
4758;SDS011;2393;50.560;12.636;2022-08-19T08:11:32;14.07;;;9.30;;
4758;SDS011;2393;50.560;12.636;2022-08-19T08:14:03;17.50;;;12.50;;
4758;SDS011;2393;50.560;12.636;2022-08-19T08:16:33;20.07;;;10.67;;
4758;SDS011;2393;50.560;12.636;2022-08-19T08:19:05;16.87;;;10.20;;
4758;SDS011;2393;50.560;12.636;2022-08-19T08:21:52;9.20;;;8.00;;
4758;SDS011;2393;50.560;12.636;2022-08-19T08:24:24;11.60;;;9.03;;
4758;SDS011;2393;50.560;12.636;2022-08-19T08:26:54;11.20;;;8.70;;
4758;SDS011;2393;50.560;12.636;2022-08-19T08:29:23;7.93;;;6.53;;
4758;SDS011;2393;50.560;12.636;2022-08-19T08:32:00;7.27;;;6.23;;
4758;SDS011;2393;50.560;12.636;2022-08-19T08:34:28;6.93;;;6.03;;
4758;SDS011;2393;50.560;12.636;2022-08-19T08:36:57;7.90;;;5.57;;
4758;SDS011;2393;50.560;12.636;2022-08-19T08:39:25;6.40;;;4.93;;
4758;SDS011;2393;50.560;12.636;2022-08-19T08:41:56;6.97;;;4.77;;
4758;SDS011;2393;50.560;12.636;2022-08-19T08:44:48;4.50;;;4.10;;
4758;SDS011;2393;50.560;12.636;2022-08-19T08:47:31;6.50;;;3.77;;
4758;SDS011;2393;50.560;12.636;2022-08-19T08:50:08;3.83;;;3.53;;
4758;SDS011;2393;50.560;12.636;2022-08-19T08:52:43;4.90;;;3.40;;
4758;SDS011;2393;50.560;12.636;2022-08-19T08:55:15;5.80;;;3.30;;
4758;SDS011;2393;50.560;12.636;2022-08-19T08:57:50;3.37;;;3.07;;
4758;SDS011;2393;50.560;12.636;2022-08-19T09:00:22;3.30;;;3.10;;
4758;SDS011;2393;50.560;12.636;2022-08-19T09:02:53;3.80;;;3.50;;
4758;SDS011;2393;50.560;12.636;2022-08-19T09:05:22;4.83;;;4.43;;
4758;SDS011;2393;50.560;12.636;2022-08-19T09:08:07;3.57;;;3.20;;
4758;SDS011;2393;50.560;12.636;2022-08-19T09:10:45;4.20;;;3.80;;
4758;SDS011;2393;50.560;12.636;2022-08-19T09:13:22;6.30;;;5.00;;
4758;SDS011;2393;50.560;12.636;2022-08-19T09:16:00;6.23;;;5.63;;
4758;SDS011;2393;50.560;12.636;2022-08-19T09:18:38;6.57;;;5.80;;
4758;SDS011;2393;50.560;12.636;2022-08-19T09:21:08;6.60;;;5.87;;
4758;SDS011;2393;50.560;12.636;2022-08-19T09:23:38;8.53;;;5.90;;
4758;SDS011;2393;50.560;12.636;2022-08-19T09:26:30;6.70;;;6.00;;
4758;SDS011;2393;50.560;12.636;2022-08-19T09:29:18;9.20;;;6.83;;
4758;SDS011;2393;50.560;12.636;2022-08-19T09:31:48;6.93;;;5.60;;
4758;SDS011;2393;50.560;12.636;2022-08-19T09:34:40;14.93;;;10.80;;
4758;SDS011;2393;50.560;12.636;2022-08-19T09:37:54;18.80;;;11.20;;
4758;SDS011;2393;50.560;12.636;2022-08-19T09:40:29;21.53;;;13.80;;
4758;SDS011;2393;50.560;12.636;2022-08-19T09:43:04;15.13;;;9.97;;
4758;SDS011;2393;50.560;12.636;2022-08-19T09:45:39;21.40;;;12.73;;
4758;SDS011;2393;50.560;12.636;2022-08-19T09:51:24;25.00;;;15.27;;
4758;SDS011;2393;50.560;12.636;2022-08-19T09:54:08;18.60;;;11.30;;
4758;SDS011;2393;50.560;12.636;2022-08-19T09:56:38;21.20;;;13.20;;
4758;SDS011;2393;50.560;12.636;2022-08-19T09:59:07;28.37;;;17.77;;
4758;SDS011;2393;50.560;12.636;2022-08-19T10:01:36;33.60;;;19.00;;
4758;SDS011;2393;50.560;12.636;2022-08-19T10:04:04;37.20;;;21.10;;
4758;SDS011;2393;50.560;12.636;2022-08-19T10:06:45;34.77;;;18.20;;
4758;SDS011;2393;50.560;12.636;2022-08-19T10:09:18;39.70;;;19.57;;
4758;SDS011;2393;50.560;12.636;2022-08-19T10:12:01;39.50;;;20.27;;
4758;SDS011;2393;50.560;12.636;2022-08-19T10:14:31;42.93;;;24.53;;
4758;SDS011;2393;50.560;12.636;2022-08-19T10:17:00;36.07;;;20.13;;
4758;SDS011;2393;50.560;12.636;2022-08-19T10:19:44;41.93;;;23.20;;
4758;SDS011;2393;50.560;12.636;2022-08-19T10:22:20;46.43;;;26.40;;
4758;SDS011;2393;50.560;12.636;2022-08-19T10:24:51;47.03;;;25.97;;
4758;SDS011;2393;50.560;12.636;2022-08-19T10:27:22;53.60;;;28.17;;
4758;SDS011;2393;50.560;12.636;2022-08-19T10:29:51;81.00;;;37.90;;
4758;SDS011;2393;50.560;12.636;2022-08-19T10:32:20;83.23;;;36.90;;
4758;SDS011;2393;50.560;12.636;2022-08-19T10:34:59;76.50;;;37.60;;
4758;SDS011;2393;50.560;12.636;2022-08-19T10:37:31;81.50;;;37.30;;
4758;SDS011;2393;50.560;12.636;2022-08-19T10:40:00;81.23;;;38.63;;
4758;SDS011;2393;50.560;12.636;2022-08-19T10:42:32;84.27;;;36.67;;
4758;SDS011;2393;50.560;12.636;2022-08-19T10:45:00;81.97;;;38.53;;
4758;SDS011;2393;50.560;12.636;2022-08-19T10:47:30;84.27;;;37.20;;
4758;SDS011;2393;50.560;12.636;2022-08-19T10:49:58;92.60;;;39.43;;
4758;SDS011;2393;50.560;12.636;2022-08-19T10:52:47;84.37;;;39.50;;
4758;SDS011;2393;50.560;12.636;2022-08-19T10:55:17;90.03;;;37.80;;
4758;SDS011;2393;50.560;12.636;2022-08-19T10:58:10;81.60;;;35.37;;
4758;SDS011;2393;50.560;12.636;2022-08-19T11:00:39;84.37;;;35.20;;
4758;SDS011;2393;50.560;12.636;2022-08-19T11:03:08;82.43;;;33.10;;
4758;SDS011;2393;50.560;12.636;2022-08-19T11:05:36;89.90;;;34.83;;
4758;SDS011;2393;50.560;12.636;2022-08-19T11:08:06;70.30;;;32.80;;
4758;SDS011;2393;50.560;12.636;2022-08-19T11:10:49;78.33;;;29.93;;
4758;SDS011;2393;50.560;12.636;2022-08-19T11:13:21;85.47;;;34.50;;
4758;SDS011;2393;50.560;12.636;2022-08-19T11:15:55;72.40;;;32.30;;
4758;SDS011;2393;50.560;12.636;2022-08-19T11:18:32;72.03;;;30.20;;
4758;SDS011;2393;50.560;12.636;2022-08-19T11:21:07;92.37;;;34.47;;
4758;SDS011;2393;50.560;12.636;2022-08-19T11:23:37;84.47;;;34.50;;
4758;SDS011;2393;50.560;12.636;2022-08-19T11:26:05;83.40;;;36.13;;
4758;SDS011;2393;50.560;12.636;2022-08-19T11:28:35;76.53;;;31.70;;
4758;SDS011;2393;50.560;12.636;2022-08-19T11:31:04;66.23;;;30.53;;
4758;SDS011;2393;50.560;12.636;2022-08-19T11:33:36;69.93;;;31.73;;
4758;SDS011;2393;50.560;12.636;2022-08-19T11:36:04;58.87;;;28.90;;
4758;SDS011;2393;50.560;12.636;2022-08-19T11:38:33;52.50;;;26.63;;
4758;SDS011;2393;50.560;12.636;2022-08-19T11:41:03;57.50;;;26.10;;
4758;SDS011;2393;50.560;12.636;2022-08-19T11:43:33;64.97;;;26.10;;
4758;SDS011;2393;50.560;12.636;2022-08-19T11:46:05;56.03;;;25.53;;
4758;SDS011;2393;50.560;12.636;2022-08-19T11:48:34;49.90;;;25.20;;
4758;SDS011;2393;50.560;12.636;2022-08-19T11:51:03;50.80;;;24.33;;
4758;SDS011;2393;50.560;12.636;2022-08-19T11:53:33;33.10;;;17.80;;
4758;SDS011;2393;50.560;12.636;2022-08-19T11:56:02;30.57;;;15.97;;
4758;SDS011;2393;50.560;12.636;2022-08-19T11:58:31;26.83;;;15.30;;
4758;SDS011;2393;50.560;12.636;2022-08-19T12:01:00;23.43;;;14.13;;
4758;SDS011;2393;50.560;12.636;2022-08-19T12:03:29;23.40;;;13.83;;
4758;SDS011;2393;50.560;12.636;2022-08-19T12:05:57;24.90;;;15.73;;
4758;SDS011;2393;50.560;12.636;2022-08-19T12:08:25;21.63;;;14.17;;
4758;SDS011;2393;50.560;12.636;2022-08-19T12:10:53;26.53;;;16.97;;
4758;SDS011;2393;50.560;12.636;2022-08-19T12:13:22;29.70;;;17.47;;
4758;SDS011;2393;50.560;12.636;2022-08-19T12:15:50;34.07;;;16.87;;
4758;SDS011;2393;50.560;12.636;2022-08-19T12:18:19;33.30;;;17.20;;
4758;SDS011;2393;50.560;12.636;2022-08-19T12:20:50;28.17;;;16.77;;
4758;SDS011;2393;50.560;12.636;2022-08-19T12:23:19;31.70;;;17.23;;
4758;SDS011;2393;50.560;12.636;2022-08-19T12:25:47;27.93;;;15.87;;
4758;SDS011;2393;50.560;12.636;2022-08-19T12:28:18;30.27;;;15.90;;
4758;SDS011;2393;50.560;12.636;2022-08-19T12:30:47;26.17;;;15.73;;
4758;SDS011;2393;50.560;12.636;2022-08-19T12:33:16;31.43;;;15.77;;
4758;SDS011;2393;50.560;12.636;2022-08-19T12:35:46;32.00;;;16.37;;
4758;SDS011;2393;50.560;12.636;2022-08-19T12:38:15;36.63;;;15.73;;
4758;SDS011;2393;50.560;12.636;2022-08-19T12:40:45;33.40;;;18.10;;
4758;SDS011;2393;50.560;12.636;2022-08-19T12:43:13;45.10;;;18.27;;
4758;SDS011;2393;50.560;12.636;2022-08-19T12:45:42;39.93;;;18.00;;
4758;SDS011;2393;50.560;12.636;2022-08-19T12:48:12;41.30;;;17.77;;
4758;SDS011;2393;50.560;12.636;2022-08-19T12:51:00;41.33;;;18.97;;
4758;SDS011;2393;50.560;12.636;2022-08-19T12:53:34;45.07;;;21.67;;
4758;SDS011;2393;50.560;12.636;2022-08-19T12:56:05;43.20;;;19.47;;
4758;SDS011;2393;50.560;12.636;2022-08-19T12:58:38;47.10;;;24.70;;
4758;SDS011;2393;50.560;12.636;2022-08-19T13:01:15;58.30;;;24.90;;
4758;SDS011;2393;50.560;12.636;2022-08-19T13:03:50;57.50;;;24.50;;
4758;SDS011;2393;50.560;12.636;2022-08-19T13:06:19;53.20;;;25.80;;
4758;SDS011;2393;50.560;12.636;2022-08-19T13:08:48;51.13;;;22.40;;
4758;SDS011;2393;50.560;12.636;2022-08-19T13:11:22;50.00;;;24.27;;
4758;SDS011;2393;50.560;12.636;2022-08-19T13:13:51;59.03;;;24.10;;
4758;SDS011;2393;50.560;12.636;2022-08-19T13:16:21;55.53;;;25.40;;
4758;SDS011;2393;50.560;12.636;2022-08-19T13:18:49;58.07;;;27.93;;
4758;SDS011;2393;50.560;12.636;2022-08-19T13:21:18;83.13;;;27.33;;
4758;SDS011;2393;50.560;12.636;2022-08-19T13:23:50;65.57;;;30.17;;
4758;SDS011;2393;50.560;12.636;2022-08-19T13:26:19;70.80;;;30.20;;
4758;SDS011;2393;50.560;12.636;2022-08-19T13:28:48;64.97;;;28.50;;
4758;SDS011;2393;50.560;12.636;2022-08-19T13:31:35;70.43;;;31.23;;
4758;SDS011;2393;50.560;12.636;2022-08-19T13:34:29;67.27;;;29.87;;
4758;SDS011;2393;50.560;12.636;2022-08-19T13:36:59;69.73;;;30.30;;
4758;SDS011;2393;50.560;12.636;2022-08-19T13:39:30;69.87;;;28.80;;
4758;SDS011;2393;50.560;12.636;2022-08-19T13:41:59;75.37;;;30.30;;
4758;SDS011;2393;50.560;12.636;2022-08-19T13:44:28;70.10;;;28.73;;
4758;SDS011;2393;50.560;12.636;2022-08-19T13:46:59;61.43;;;29.73;;
4758;SDS011;2393;50.560;12.636;2022-08-19T13:49:32;70.77;;;30.03;;
4758;SDS011;2393;50.560;12.636;2022-08-19T13:52:02;66.43;;;31.23;;
4758;SDS011;2393;50.560;12.636;2022-08-19T13:54:34;67.10;;;30.60;;
4758;SDS011;2393;50.560;12.636;2022-08-19T13:57:02;62.47;;;31.70;;
4758;SDS011;2393;50.560;12.636;2022-08-19T13:59:31;66.47;;;30.87;;
4758;SDS011;2393;50.560;12.636;2022-08-19T14:01:59;78.53;;;32.80;;
4758;SDS011;2393;50.560;12.636;2022-08-19T14:04:29;73.37;;;30.80;;
4758;SDS011;2393;50.560;12.636;2022-08-19T14:06:58;62.97;;;27.57;;
4758;SDS011;2393;50.560;12.636;2022-08-19T14:09:27;93.93;;;34.93;;
4758;SDS011;2393;50.560;12.636;2022-08-19T14:11:57;80.50;;;29.47;;
4758;SDS011;2393;50.560;12.636;2022-08-19T14:14:26;88.73;;;33.40;;
4758;SDS011;2393;50.560;12.636;2022-08-19T14:16:55;86.70;;;33.07;;
4758;SDS011;2393;50.560;12.636;2022-08-19T14:19:23;77.73;;;29.07;;
4758;SDS011;2393;50.560;12.636;2022-08-19T14:21:55;91.90;;;30.77;;
4758;SDS011;2393;50.560;12.636;2022-08-19T14:24:25;83.00;;;30.20;;
4758;SDS011;2393;50.560;12.636;2022-08-19T14:26:54;78.90;;;30.23;;
4758;SDS011;2393;50.560;12.636;2022-08-19T14:29:24;83.33;;;29.20;;
4758;SDS011;2393;50.560;12.636;2022-08-19T14:31:54;76.40;;;30.90;;
4758;SDS011;2393;50.560;12.636;2022-08-19T14:34:22;73.60;;;29.00;;
4758;SDS011;2393;50.560;12.636;2022-08-19T14:36:51;80.67;;;29.90;;
4758;SDS011;2393;50.560;12.636;2022-08-19T14:39:20;85.60;;;32.27;;
4758;SDS011;2393;50.560;12.636;2022-08-19T14:41:48;75.83;;;29.93;;
4758;SDS011;2393;50.560;12.636;2022-08-19T14:44:16;69.53;;;29.37;;
4758;SDS011;2393;50.560;12.636;2022-08-19T14:46:46;73.93;;;29.33;;
4758;SDS011;2393;50.560;12.636;2022-08-19T14:49:15;73.77;;;29.27;;
4758;SDS011;2393;50.560;12.636;2022-08-19T14:51:44;86.70;;;29.47;;
4758;SDS011;2393;50.560;12.636;2022-08-19T14:54:13;76.23;;;28.10;;
4758;SDS011;2393;50.560;12.636;2022-08-19T14:56:42;68.77;;;25.00;;
4758;SDS011;2393;50.560;12.636;2022-08-19T14:59:10;84.93;;;29.77;;
4758;SDS011;2393;50.560;12.636;2022-08-19T15:01:39;80.73;;;31.67;;
4758;SDS011;2393;50.560;12.636;2022-08-19T15:04:09;95.00;;;32.93;;
4758;SDS011;2393;50.560;12.636;2022-08-19T15:06:37;74.53;;;33.30;;
4758;SDS011;2393;50.560;12.636;2022-08-19T15:09:05;105.33;;;35.17;;